Time;durP1;ratioP1;P1;durP2;ratioP2;P2;SDS_P1;SDS_P2;PMS_P1;PMS_P2;Temp;Humidity;BMP_temperature;BMP_pressure;BME280_temperature;BME280_humidity;BME280_pressure;Samples;Min_cycle;Max_cycle;Signal;HPM_P1;HPM_P2
2021/11/30 00:01:50;;;;;;;8.47;5.73;;;;;;;;;;5027189;28;20588;-53
2021/11/30 00:04:17;;;;;;;8.90;5.70;;;;;;;;;;5013148;28;20699;-53
2021/11/30 00:06:44;;;;;;;11.43;6.07;;;;;;;;;;5029737;28;20232;-53
2021/11/30 00:12:00;;;;;;;13.93;5.90;;;;;;;;;;5012387;28;20241;-54
2021/11/30 00:14:27;;;;;;;9.60;6.17;;;;;;;;;;5029436;28;20285;-53
2021/11/30 00:16:53;;;;;;;8.23;5.80;;;;;;;;;;4991826;28;20257;-53
2021/11/30 00:19:20;;;;;;;10.83;6.27;;;;;;;;;;5024522;28;20188;-54
2021/11/30 00:21:46;;;;;;;11.80;6.00;;;;;;;;;;5011310;28;20272;-53
2021/11/30 00:24:12;;;;;;;8.67;6.33;;;;;;;;;;5030222;28;20183;-53
2021/11/30 00:26:39;;;;;;;9.17;5.90;;;;;;;;;;5029020;28;20649;-52
2021/11/30 00:29:05;;;;;;;10.53;5.57;;;;;;;;;;5021860;28;20259;-53
2021/11/30 00:31:31;;;;;;;13.03;6.10;;;;;;;;;;5019123;28;20656;-53
2021/11/30 00:33:57;;;;;;;8.63;6.27;;;;;;;;;;5011471;28;20197;-53
2021/11/30 00:36:24;;;;;;;11.20;5.47;;;;;;;;;;5011785;28;20174;-53
2021/11/30 00:38:50;;;;;;;6.13;5.17;;;;;;;;;;5035475;28;20606;-54
2021/11/30 00:41:17;;;;;;;8.63;5.97;;;;;;;;;;4997631;28;20243;-54
2021/11/30 00:43:43;;;;;;;9.70;6.03;;;;;;;;;;5028659;28;20222;-52
2021/11/30 00:46:20;;;;;;;7.83;5.40;;;;;;;;;;5028166;28;20718;-54
2021/11/30 00:48:46;;;;;;;8.23;5.20;;;;;;;;;;5029233;28;20213;-53
2021/11/30 00:51:14;;;;;;;7.73;5.83;;;;;;;;;;5022570;28;20224;-54
2021/11/30 00:53:41;;;;;;;6.07;5.43;;;;;;;;;;5028917;28;20173;-54
2021/11/30 00:56:07;;;;;;;7.77;5.73;;;;;;;;;;4995449;28;20272;-53
2021/11/30 00:58:34;;;;;;;6.43;5.27;;;;;;;;;;5029358;28;20269;-53
2021/11/30 01:01:00;;;;;;;7.43;6.03;;;;;;;;;;5014361;28;20281;-53
2021/11/30 01:03:26;;;;;;;6.53;5.20;;;;;;;;;;5010848;28;20262;-53
2021/11/30 01:05:53;;;;;;;9.87;6.17;;;;;;;;;;5012682;28;20217;-52
2021/11/30 01:08:19;;;;;;;7.13;5.90;;;;;;;;;;5024137;28;20561;-53
2021/11/30 01:10:45;;;;;;;13.57;6.57;;;;;;;;;;5024974;28;20185;-53
2021/11/30 01:13:11;;;;;;;8.07;5.90;;;;;;;;;;5023256;28;20178;-54
2021/11/30 01:15:38;;;;;;;8.83;6.80;;;;;;;;;;5029066;28;20181;-53
2021/11/30 01:18:05;;;;;;;8.83;6.20;;;;;;;;;;5027557;28;20198;-53
2021/11/30 01:20:31;;;;;;;7.93;6.13;;;;;;;;;;5011558;28;20182;-53
2021/11/30 01:22:57;;;;;;;11.33;6.90;;;;;;;;;;5031777;28;20180;-53
2021/11/30 01:25:24;;;;;;;7.40;6.50;;;;;;;;;;5030427;28;20672;-53
2021/11/30 01:27:50;;;;;;;8.70;6.63;;;;;;;;;;5027552;28;20685;-53
2021/11/30 01:30:17;;;;;;;8.97;6.70;;;;;;;;;;5010333;28;20184;-53
2021/11/30 01:32:44;;;;;;;11.63;8.00;;;;;;;;;;5028143;28;20180;-53
2021/11/30 01:35:11;;;;;;;7.53;6.27;;;;;;;;;;5041949;28;20654;-53
2021/11/30 01:37:38;;;;;;;7.90;6.30;;;;;;;;;;5024330;28;20625;-53
2021/11/30 01:40:08;;;;;;;7.87;6.00;;;;;;;;;;5010779;28;20277;-54
2021/11/30 01:42:42;;;;;;;13.20;6.20;;;;;;;;;;5027024;28;20645;-52
2021/11/30 01:45:10;;;;;;;9.33;6.10;;;;;;;;;;5028508;28;20220;-52
2021/11/30 01:50:26;;;;;;;8.87;6.40;;;;;;;;;;4986931;28;20555;-52
2021/11/30 01:52:53;;;;;;;9.07;6.17;;;;;;;;;;5007882;28;20178;-54
2021/11/30 01:55:19;;;;;;;9.37;6.70;;;;;;;;;;4974807;28;20190;-53
2021/11/30 01:57:51;;;;;;;8.63;6.77;;;;;;;;;;5003223;28;20182;-53
2021/11/30 02:00:18;;;;;;;7.77;6.40;;;;;;;;;;5020843;28;20582;-53
2021/11/30 02:02:45;;;;;;;10.10;6.87;;;;;;;;;;4971848;28;20213;-55
2021/11/30 02:05:11;;;;;;;11.57;6.20;;;;;;;;;;5011387;28;20182;-53
2021/11/30 02:07:39;;;;;;;8.43;6.80;;;;;;;;;;4991643;28;20266;-54
2021/11/30 02:10:08;;;;;;;9.30;6.80;;;;;;;;;;4995098;28;20239;-53
2021/11/30 02:12:35;;;;;;;15.17;6.20;;;;;;;;;;4977364;28;20170;-54
2021/11/30 02:15:02;;;;;;;8.77;6.50;;;;;;;;;;4994709;28;20199;-54
2021/11/30 02:17:29;;;;;;;6.90;6.20;;;;;;;;;;5010925;28;20182;-53
2021/11/30 02:19:58;;;;;;;7.67;6.20;;;;;;;;;;5001673;28;20182;-53
2021/11/30 02:22:25;;;;;;;7.73;6.20;;;;;;;;;;4993793;28;20178;-54
2021/11/30 02:24:52;;;;;;;8.93;5.67;;;;;;;;;;5012634;28;20178;-53
2021/11/30 02:27:19;;;;;;;9.17;5.53;;;;;;;;;;4977370;28;20653;-54
2021/11/30 02:29:45;;;;;;;6.67;5.23;;;;;;;;;;4989617;28;20678;-53
2021/11/30 02:32:11;;;;;;;11.00;5.63;;;;;;;;;;4990254;28;20262;-54
2021/11/30 02:34:37;;;;;;;7.27;5.03;;;;;;;;;;4996315;28;20182;-54
2021/11/30 02:37:06;;;;;;;7.63;5.17;;;;;;;;;;4992427;28;20410;-54
2021/11/30 02:39:33;;;;;;;9.97;5.57;;;;;;;;;;5018309;28;20677;-55
2021/11/30 02:42:02;;;;;;;7.27;4.97;;;;;;;;;;4976385;28;20175;-54
2021/11/30 02:44:28;;;;;;;8.40;5.43;;;;;;;;;;5011151;28;20248;-55
2021/11/30 02:46:54;;;;;;;8.17;5.10;;;;;;;;;;5010072;28;20538;-54
2021/11/30 02:49:22;;;;;;;7.97;5.10;;;;;;;;;;5015574;28;20229;-53
2021/11/30 02:51:51;;;;;;;8.57;4.70;;;;;;;;;;5029860;28;20177;-54
2021/11/30 02:54:18;;;;;;;7.93;5.00;;;;;;;;;;5026123;28;20765;-54
2021/11/30 02:56:46;;;;;;;7.30;4.97;;;;;;;;;;5029373;28;20186;-54
2021/11/30 02:59:12;;;;;;;7.20;5.03;;;;;;;;;;5030792;28;20213;-55
2021/11/30 03:01:40;;;;;;;9.70;5.03;;;;;;;;;;5011154;28;20905;-54
2021/11/30 03:04:13;;;;;;;8.50;4.77;;;;;;;;;;5035859;28;20414;-54
2021/11/30 03:06:40;;;;;;;7.37;4.53;;;;;;;;;;5012993;28;20181;-55
2021/11/30 03:09:06;;;;;;;6.60;4.80;;;;;;;;;;5009489;28;20299;-55
2021/11/30 03:11:33;;;;;;;5.40;4.63;;;;;;;;;;5022059;28;20166;-55
2021/11/30 03:14:00;;;;;;;5.73;3.90;;;;;;;;;;5011999;28;20170;-53
2021/11/30 03:16:26;;;;;;;5.93;4.50;;;;;;;;;;5028003;28;20759;-54
2021/11/30 03:18:52;;;;;;;6.30;4.50;;;;;;;;;;5030036;28;20311;-54
2021/11/30 03:21:19;;;;;;;8.50;4.33;;;;;;;;;;5012451;28;20588;-55
2021/11/30 03:23:45;;;;;;;9.77;4.87;;;;;;;;;;5030488;28;20186;-56
2021/11/30 03:26:12;;;;;;;7.13;4.23;;;;;;;;;;5011467;28;20186;-55
2021/11/30 03:28:40;;;;;;;6.37;3.77;;;;;;;;;;5014122;28;20202;-55
2021/11/30 03:31:08;;;;;;;5.63;4.17;;;;;;;;;;5018325;28;20178;-53
2021/11/30 03:36:20;;;;;;;9.50;4.03;;;;;;;;;;5029869;28;20204;-55
2021/11/30 03:38:46;;;;;;;5.27;3.93;;;;;;;;;;5037691;28;20174;-55
2021/11/30 03:41:12;;;;;;;6.43;3.90;;;;;;;;;;5009977;28;20269;-55
2021/11/30 03:43:38;;;;;;;6.63;3.93;;;;;;;;;;5008338;28;20194;-55
2021/11/30 03:46:05;;;;;;;6.63;3.90;;;;;;;;;;5021090;28;20190;-55
2021/11/30 03:48:31;;;;;;;6.10;4.03;;;;;;;;;;5005229;28;20297;-55
2021/11/30 03:50:57;;;;;;;6.40;4.00;;;;;;;;;;5003534;28;20673;-55
2021/11/30 03:53:24;;;;;;;5.57;4.03;;;;;;;;;;5015415;28;20239;-55
2021/11/30 03:55:50;;;;;;;4.43;3.37;;;;;;;;;;5009530;28;20229;-55
2021/11/30 03:58:17;;;;;;;4.53;3.47;;;;;;;;;;4989341;28;20555;-53
2021/11/30 04:00:43;;;;;;;3.33;3.03;;;;;;;;;;4985950;28;20669;-55
2021/11/30 04:03:09;;;;;;;3.50;3.13;;;;;;;;;;4986389;28;20213;-54
2021/11/30 04:05:36;;;;;;;4.93;3.60;;;;;;;;;;5008939;28;20191;-55
2021/11/30 04:08:02;;;;;;;5.27;3.50;;;;;;;;;;4989768;28;20504;-55
2021/11/30 04:10:29;;;;;;;5.93;3.57;;;;;;;;;;4991837;28;20183;-55
2021/11/30 04:12:55;;;;;;;5.93;3.13;;;;;;;;;;4991438;28;20252;-55
2021/11/30 04:15:22;;;;;;;5.30;3.27;;;;;;;;;;4987553;28;20179;-55
2021/11/30 04:17:49;;;;;;;3.67;2.83;;;;;;;;;;5008565;28;20194;-55
2021/11/30 04:20:16;;;;;;;5.50;3.47;;;;;;;;;;4990756;28;20182;-54
2021/11/30 04:22:43;;;;;;;3.80;3.30;;;;;;;;;;4990145;28;20186;-54
2021/11/30 04:25:10;;;;;;;4.70;2.83;;;;;;;;;;4985625;28;20183;-56
2021/11/30 04:27:37;;;;;;;4.70;3.40;;;;;;;;;;4989868;28;20186;-55
2021/11/30 04:30:04;;;;;;;3.77;2.77;;;;;;;;;;5009451;28;20202;-55
2021/11/30 04:32:31;;;;;;;3.30;2.57;;;;;;;;;;4989862;28;20179;-54
2021/11/30 04:34:57;;;;;;;4.87;2.80;;;;;;;;;;4987818;28;20566;-55
2021/11/30 04:37:24;;;;;;;8.43;3.17;;;;;;;;;;4991199;28;20186;-55
2021/11/30 04:39:50;;;;;;;3.33;2.40;;;;;;;;;;4997552;28;20448;-55
2021/11/30 04:42:16;;;;;;;7.43;3.10;;;;;;;;;;5008479;28;20178;-55
2021/11/30 04:45:05;;;;;;;4.77;3.17;;;;;;;;;;5008790;28;20190;-53
2021/11/30 04:47:34;;;;;;;4.87;2.80;;;;;;;;;;5003416;28;20229;-55
2021/11/30 04:50:09;;;;;;;3.27;2.60;;;;;;;;;;4992704;28;20606;-55
2021/11/30 04:52:38;;;;;;;2.70;2.50;;;;;;;;;;5008250;28;20166;-55
2021/11/30 04:55:04;;;;;;;3.43;3.13;;;;;;;;;;4991102;28;20552;-55
2021/11/30 04:57:34;;;;;;;3.50;3.20;;;;;;;;;;5004294;28;20202;-55
2021/11/30 05:00:00;;;;;;;3.37;3.00;;;;;;;;;;4992697;28;20183;-55
2021/11/30 05:02:27;;;;;;;4.93;3.57;;;;;;;;;;5006060;28;20186;-56
2021/11/30 05:04:53;;;;;;;2.63;2.43;;;;;;;;;;5008726;28;20190;-55
2021/11/30 05:07:19;;;;;;;3.57;2.80;;;;;;;;;;5008323;28;20229;-54
2021/11/30 05:09:46;;;;;;;3.30;3.00;;;;;;;;;;4986816;28;20210;-54
2021/11/30 05:12:12;;;;;;;4.10;3.50;;;;;;;;;;4991792;28;20203;-54
2021/11/30 05:14:39;;;;;;;4.07;2.90;;;;;;;;;;4979970;28;20676;-55
2021/11/30 05:17:06;;;;;;;4.10;3.70;;;;;;;;;;4988422;28;20206;-55
2021/11/30 05:19:32;;;;;;;3.20;2.90;;;;;;;;;;4993191;28;20241;-55
2021/11/30 05:21:59;;;;;;;3.40;3.10;;;;;;;;;;4991678;28;20665;-54
2021/11/30 05:24:25;;;;;;;5.63;3.43;;;;;;;;;;5012946;28;20261;-54
2021/11/30 05:26:54;;;;;;;3.87;2.93;;;;;;;;;;5008128;28;20185;-55
2021/11/30 05:29:20;;;;;;;4.50;3.50;;;;;;;;;;4977144;28;20203;-54
2021/11/30 05:31:46;;;;;;;3.53;2.93;;;;;;;;;;5005625;28;20190;-54
2021/11/30 05:34:13;;;;;;;3.80;3.27;;;;;;;;;;5005351;28;20201;-54
2021/11/30 05:36:43;;;;;;;3.90;3.50;;;;;;;;;;4983307;28;20174;-54
2021/11/30 05:39:09;;;;;;;4.57;4.17;;;;;;;;;;5008928;28;20641;-54
2021/11/30 05:41:35;;;;;;;4.80;3.53;;;;;;;;;;5011213;28;20595;-55
2021/11/30 05:44:02;;;;;;;3.50;3.20;;;;;;;;;;4994958;28;20641;-54
2021/11/30 05:46:30;;;;;;;4.30;3.77;;;;;;;;;;4992421;28;20705;-55
2021/11/30 05:48:56;;;;;;;4.13;3.73;;;;;;;;;;4988840;28;20264;-55
2021/11/30 05:51:23;;;;;;;4.47;3.60;;;;;;;;;;5028403;28;20596;-54
2021/11/30 05:53:49;;;;;;;4.40;3.97;;;;;;;;;;5011548;28;20174;-54
2021/11/30 05:56:15;;;;;;;4.20;3.80;;;;;;;;;;5032189;28;20190;-54
2021/11/30 05:58:44;;;;;;;6.87;4.33;;;;;;;;;;5031588;28;20185;-54
2021/11/30 06:01:20;;;;;;;4.57;4.13;;;;;;;;;;5012244;28;20224;-54
2021/11/30 06:06:15;;;;;;;4.70;3.87;;;;;;;;;;5030805;28;20615;-55
2021/11/30 06:08:41;;;;;;;5.60;4.40;;;;;;;;;;5014160;28;20301;-54
2021/11/30 06:11:08;;;;;;;5.10;4.20;;;;;;;;;;5028815;28;20209;-54
2021/11/30 06:13:34;;;;;;;5.20;4.23;;;;;;;;;;5013450;28;20185;-54
2021/11/30 06:16:00;;;;;;;4.77;4.30;;;;;;;;;;5026554;28;20170;-55
2021/11/30 06:18:26;;;;;;;5.07;4.57;;;;;;;;;;5011752;28;20585;-54
2021/11/30 06:20:53;;;;;;;5.10;4.60;;;;;;;;;;5023214;28;20177;-54
2021/11/30 06:23:19;;;;;;;5.40;4.90;;;;;;;;;;5013106;28;20185;-54
2021/11/30 06:25:45;;;;;;;7.03;4.80;;;;;;;;;;5017470;28;20177;-54
2021/11/30 06:28:12;;;;;;;6.03;5.43;;;;;;;;;;5031260;28;20223;-54
2021/11/30 06:30:38;;;;;;;5.70;5.03;;;;;;;;;;5014006;28;20182;-54
2021/11/30 06:33:05;;;;;;;5.60;5.07;;;;;;;;;;5030316;28;20645;-54
2021/11/30 06:35:31;;;;;;;5.43;4.93;;;;;;;;;;5031833;28;20194;-53
2021/11/30 06:37:57;;;;;;;7.13;6.23;;;;;;;;;;5016344;28;20653;-54
2021/11/30 06:40:24;;;;;;;7.17;6.20;;;;;;;;;;5020093;28;20208;-54
2021/11/30 06:42:53;;;;;;;7.10;6.13;;;;;;;;;;5013561;28;20742;-54
2021/11/30 06:45:19;;;;;;;9.13;7.17;;;;;;;;;;5013739;28;20177;-53
2021/11/30 06:47:46;;;;;;;13.07;7.43;;;;;;;;;;5012057;28;20191;-54
2021/11/30 06:50:13;;;;;;;9.50;8.33;;;;;;;;;;5013889;28;20317;-55
2021/11/30 06:52:40;;;;;;;10.17;8.80;;;;;;;;;;5014907;28;20188;-53
2021/11/30 06:55:08;;;;;;;11.73;9.50;;;;;;;;;;5034275;28;20192;-53
2021/11/30 06:57:35;;;;;;;14.80;11.50;;;;;;;;;;5023333;28;20255;-53
2021/11/30 07:00:04;;;;;;;19.40;13.17;;;;;;;;;;5014131;28;20178;-53
2021/11/30 07:02:30;;;;;;;13.37;12.07;;;;;;;;;;5029881;28;20192;-54
2021/11/30 07:05:02;;;;;;;13.23;10.80;;;;;;;;;;5010824;28;20178;-54
2021/11/30 07:07:39;;;;;;;13.20;10.43;;;;;;;;;;5030696;28;20162;-53
2021/11/30 07:10:33;;;;;;;11.80;9.70;;;;;;;;;;5011867;28;20205;-54
2021/11/30 07:15:37;;;;;;;12.67;10.20;;;;;;;;;;5031462;28;20211;-54
2021/11/30 07:18:03;;;;;;;11.30;10.10;;;;;;;;;;5009902;28;20189;-54
2021/11/30 07:20:29;;;;;;;13.17;11.77;;;;;;;;;;5024730;28;20220;-54
2021/11/30 07:22:57;;;;;;;17.37;11.97;;;;;;;;;;5012933;28;20199;-54
2021/11/30 07:25:27;;;;;;;13.47;11.27;;;;;;;;;;5013592;28;20201;-53
2021/11/30 07:27:56;;;;;;;16.03;14.30;;;;;;;;;;5012679;28;20193;-55
2021/11/30 07:30:23;;;;;;;16.93;11.47;;;;;;;;;;5030276;28;20196;-54
2021/11/30 07:32:49;;;;;;;15.53;13.13;;;;;;;;;;4987393;28;20553;-53
2021/11/30 07:35:19;;;;;;;13.50;11.93;;;;;;;;;;5027229;28;20183;-53
2021/11/30 07:37:46;;;;;;;13.13;11.33;;;;;;;;;;5004978;28;20294;-54
2021/11/30 07:40:15;;;;;;;14.50;11.40;;;;;;;;;;5030550;28;20177;-54
2021/11/30 07:42:43;;;;;;;13.40;11.93;;;;;;;;;;5012149;28;20186;-53
2021/11/30 07:45:11;;;;;;;14.73;11.87;;;;;;;;;;5023305;28;20206;-54
2021/11/30 07:47:41;;;;;;;15.87;12.07;;;;;;;;;;5026155;28;20173;-54
2021/11/30 07:50:08;;;;;;;10.87;9.77;;;;;;;;;;5013998;28;20225;-55
2021/11/30 07:52:42;;;;;;;12.47;10.23;;;;;;;;;;5011870;28;20655;-54
2021/11/30 07:55:13;;;;;;;9.87;8.70;;;;;;;;;;5031047;28;20204;-55
2021/11/30 07:57:40;;;;;;;9.53;8.50;;;;;;;;;;5016222;28;20209;-54
2021/11/30 08:00:08;;;;;;;9.40;7.87;;;;;;;;;;5009786;28;20526;-53
2021/11/30 08:02:34;;;;;;;8.50;7.70;;;;;;;;;;4992078;28;20581;-54
2021/11/30 08:05:01;;;;;;;9.47;8.13;;;;;;;;;;5012149;28;20182;-53
2021/11/30 08:07:30;;;;;;;8.80;7.90;;;;;;;;;;5030093;28;20217;-53
2021/11/30 08:10:00;;;;;;;8.40;7.50;;;;;;;;;;5011237;28;20590;-53
2021/11/30 08:12:26;;;;;;;8.73;7.43;;;;;;;;;;5030069;28;20789;-54
2021/11/30 08:14:52;;;;;;;7.80;7.00;;;;;;;;;;5012383;28;20566;-55
2021/11/30 08:17:20;;;;;;;7.93;6.80;;;;;;;;;;5028536;28;20653;-54
2021/11/30 08:19:47;;;;;;;7.90;7.20;;;;;;;;;;5012303;28;20710;-55
2021/11/30 08:22:14;;;;;;;7.87;6.60;;;;;;;;;;5023898;28;20178;-55
2021/11/30 08:24:41;;;;;;;7.70;6.53;;;;;;;;;;5005593;28;20197;-54
2021/11/30 08:27:07;;;;;;;10.20;7.10;;;;;;;;;;5011896;28;20243;-54
2021/11/30 08:29:45;;;;;;;6.97;6.27;;;;;;;;;;4995440;28;20787;-54
2021/11/30 08:32:14;;;;;;;8.60;6.23;;;;;;;;;;5025613;28;20652;-53
2021/11/30 08:34:42;;;;;;;7.00;6.40;;;;;;;;;;5030342;28;20250;-54
2021/11/30 08:37:09;;;;;;;9.97;6.97;;;;;;;;;;5011873;28;20180;-54
2021/11/30 08:39:36;;;;;;;7.07;6.37;;;;;;;;;;5011779;28;20181;-54
2021/11/30 08:42:03;;;;;;;9.33;8.13;;;;;;;;;;5028869;28;20641;-53
2021/11/30 08:44:34;;;;;;;11.93;8.10;;;;;;;;;;5020433;28;20218;-54
2021/11/30 08:47:00;;;;;;;12.10;8.37;;;;;;;;;;4999691;28;20194;-54
2021/11/30 08:49:30;;;;;;;16.00;8.03;;;;;;;;;;5025132;28;20221;-54
2021/11/30 08:51:56;;;;;;;14.87;8.40;;;;;;;;;;5010565;28;20235;-52
2021/11/30 08:54:23;;;;;;;13.73;8.47;;;;;;;;;;5023070;28;20210;-55
2021/11/30 08:56:49;;;;;;;27.17;14.00;;;;;;;;;;5028647;28;20229;-53
2021/11/30 08:59:16;;;;;;;24.00;11.77;;;;;;;;;;5028967;28;20190;-53
2021/11/30 09:01:45;;;;;;;31.23;12.90;;;;;;;;;;5027123;28;20645;-53
2021/11/30 09:04:12;;;;;;;28.23;11.93;;;;;;;;;;5028836;28;20347;-53
2021/11/30 09:06:38;;;;;;;29.97;12.87;;;;;;;;;;4999185;28;20202;-53
2021/11/30 09:09:07;;;;;;;28.77;14.47;;;;;;;;;;5035611;28;20209;-53
2021/11/30 09:11:33;;;;;;;20.77;11.10;;;;;;;;;;5005792;28;20743;-53
2021/11/30 09:14:00;;;;;;;22.63;12.00;;;;;;;;;;5013505;28;20170;-53
2021/11/30 09:16:26;;;;;;;30.40;14.50;;;;;;;;;;5027723;28;20181;-53
2021/11/30 09:18:53;;;;;;;16.10;10.57;;;;;;;;;;5011046;28;20251;-53
2021/11/30 09:21:19;;;;;;;18.50;11.33;;;;;;;;;;5028094;28;20346;-53
2021/11/30 09:23:48;;;;;;;29.23;14.30;;;;;;;;;;5028669;28;20185;-53
2021/11/30 09:26:14;;;;;;;15.07;10.07;;;;;;;;;;5022504;28;20611;-53
2021/11/30 09:28:41;;;;;;;16.07;9.17;;;;;;;;;;5010445;28;20201;-52
2021/11/30 09:31:07;;;;;;;19.13;12.77;;;;;;;;;;5009872;28;20352;-53
2021/11/30 09:33:33;;;;;;;17.77;12.50;;;;;;;;;;5028798;28;20733;-53
2021/11/30 09:35:59;;;;;;;24.00;15.03;;;;;;;;;;5028617;28;20202;-53
2021/11/30 09:38:31;;;;;;;18.77;13.67;;;;;;;;;;5028129;28;20216;-53
2021/11/30 09:41:02;;;;;;;17.57;11.30;;;;;;;;;;5028303;28;20280;-53
2021/11/30 09:43:29;;;;;;;14.33;10.27;;;;;;;;;;4999376;28;20184;-53
2021/11/30 09:45:57;;;;;;;13.63;10.27;;;;;;;;;;5013930;28;20193;-53
2021/11/30 09:48:24;;;;;;;14.67;10.87;;;;;;;;;;5033523;28;20209;-53
2021/11/30 09:50:50;;;;;;;14.33;10.77;;;;;;;;;;5048579;28;20286;-53
2021/11/30 09:53:18;;;;;;;11.90;9.47;;;;;;;;;;5029390;28;20180;-53
2021/11/30 09:55:54;;;;;;;11.30;9.30;;;;;;;;;;5011124;28;20202;-53
2021/11/30 09:58:24;;;;;;;11.63;9.67;;;;;;;;;;5008132;28;20687;-53
2021/11/30 10:00:52;;;;;;;10.67;8.87;;;;;;;;;;4995600;28;20186;-52
2021/11/30 10:03:19;;;;;;;11.20;9.43;;;;;;;;;;5009238;28;20197;-53
2021/11/30 10:05:46;;;;;;;10.07;8.67;;;;;;;;;;5046556;28;20185;-53
2021/11/30 10:08:26;;;;;;;10.00;7.60;;;;;;;;;;4997266;28;20543;-53
2021/11/30 10:10:55;;;;;;;9.00;8.10;;;;;;;;;;5026503;28;20604;-53
2021/11/30 10:13:25;;;;;;;9.27;8.13;;;;;;;;;;5009736;28;20236;-53
2021/11/30 10:15:51;;;;;;;9.30;8.40;;;;;;;;;;5009852;28;20182;-53
2021/11/30 10:18:23;;;;;;;8.40;7.50;;;;;;;;;;5008802;28;20596;-53
2021/11/30 10:20:51;;;;;;;10.00;8.80;;;;;;;;;;5010808;28;20261;-53
2021/11/30 10:23:18;;;;;;;8.10;7.07;;;;;;;;;;5009983;28;20549;-54
2021/11/30 10:25:46;;;;;;;8.80;7.93;;;;;;;;;;5029857;28;20205;-53
2021/11/30 10:28:16;;;;;;;8.60;7.37;;;;;;;;;;5019089;28;20265;-53
2021/11/30 10:30:46;;;;;;;9.17;7.23;;;;;;;;;;5000074;28;20188;-53
2021/11/30 10:33:18;;;;;;;9.37;7.67;;;;;;;;;;5013420;28;20622;-54
2021/11/30 10:35:45;;;;;;;7.63;6.90;;;;;;;;;;5016346;28;20185;-53
2021/11/30 10:38:12;;;;;;;8.57;7.63;;;;;;;;;;5030809;28;20213;-53
2021/11/30 10:40:40;;;;;;;10.83;8.00;;;;;;;;;;5019703;28;20201;-53
2021/11/30 10:43:11;;;;;;;7.97;7.17;;;;;;;;;;5032744;28;20181;-54
2021/11/30 10:45:43;;;;;;;7.90;7.07;;;;;;;;;;5013393;28;20202;-53
2021/11/30 10:48:18;;;;;;;9.23;7.10;;;;;;;;;;5011797;28;20190;-53
2021/11/30 10:50:50;;;;;;;7.80;7.00;;;;;;;;;;4982725;28;20222;-52
2021/11/30 10:53:23;;;;;;;9.00;6.57;;;;;;;;;;4991307;28;20527;-52
2021/11/30 10:55:54;;;;;;;8.50;7.13;;;;;;;;;;4992306;28;20202;-52
2021/11/30 10:58:21;;;;;;;9.93;6.73;;;;;;;;;;4995297;28;20277;-53
2021/11/30 11:00:51;;;;;;;7.70;6.33;;;;;;;;;;4995686;28;20318;-53
2021/11/30 11:03:20;;;;;;;6.80;5.97;;;;;;;;;;4992665;28;20175;-53
2021/11/30 11:05:50;;;;;;;7.27;6.07;;;;;;;;;;5011804;28;20163;-53
2021/11/30 11:08:17;;;;;;;7.90;6.50;;;;;;;;;;4993122;28;20546;-53
2021/11/30 11:10:56;;;;;;;6.73;5.80;;;;;;;;;;4999406;28;20243;-53
2021/11/30 11:13:34;;;;;;;5.93;5.33;;;;;;;;;;4990413;28;20185;-53
2021/11/30 11:16:04;;;;;;;6.13;4.93;;;;;;;;;;4992401;28;20664;-53
2021/11/30 11:18:36;;;;;;;5.87;5.27;;;;;;;;;;4993408;28;20182;-53
2021/11/30 11:21:08;;;;;;;6.47;5.27;;;;;;;;;;4993025;28;20245;-53
2021/11/30 11:23:42;;;;;;;6.00;5.40;;;;;;;;;;4993142;28;20197;-53
2021/11/30 11:26:20;;;;;;;6.17;5.47;;;;;;;;;;4988543;28;20517;-53
2021/11/30 11:28:47;;;;;;;9.50;6.03;;;;;;;;;;4992300;28;20442;-53
2021/11/30 11:31:14;;;;;;;9.23;6.37;;;;;;;;;;4992050;28;20182;-54
2021/11/30 11:33:40;;;;;;;9.97;6.47;;;;;;;;;;4993011;28;20182;-54
2021/11/30 11:36:22;;;;;;;9.47;6.37;;;;;;;;;;4992125;28;20236;-54
2021/11/30 11:38:49;;;;;;;10.23;7.30;;;;;;;;;;5010445;28;20159;-54
2021/11/30 11:41:15;;;;;;;11.67;7.10;;;;;;;;;;4989683;28;20214;-54
2021/11/30 11:43:42;;;;;;;10.97;6.47;;;;;;;;;;4999953;28;20182;-52
2021/11/30 11:46:13;;;;;;;9.33;6.17;;;;;;;;;;4989744;28;20189;-53
2021/11/30 11:48:40;;;;;;;7.07;6.37;;;;;;;;;;4992802;28;20225;-54
2021/11/30 11:51:07;;;;;;;9.77;6.73;;;;;;;;;;5028540;28;20213;-54
2021/11/30 11:53:35;;;;;;;8.47;7.07;;;;;;;;;;5029428;28;20576;-54
2021/11/30 11:56:11;;;;;;;8.73;6.17;;;;;;;;;;5030410;28;20665;-54
2021/11/30 11:58:41;;;;;;;8.27;6.57;;;;;;;;;;5026230;28;20687;-54
2021/11/30 12:01:16;;;;;;;7.10;5.67;;;;;;;;;;5011616;28;20272;-54
2021/11/30 12:03:57;;;;;;;8.93;6.07;;;;;;;;;;5029656;28;20178;-54
2021/11/30 12:06:27;;;;;;;7.77;5.93;;;;;;;;;;5012361;28;20624;-54
2021/11/30 12:09:09;;;;;;;8.90;6.13;;;;;;;;;;5027414;28;20239;-54
2021/11/30 12:11:40;;;;;;;6.73;6.03;;;;;;;;;;5012046;28;20692;-53
2021/11/30 12:14:10;;;;;;;7.97;6.00;;;;;;;;;;5042491;28;20173;-54
2021/11/30 12:16:55;;;;;;;7.23;5.60;;;;;;;;;;5016202;28;20679;-52
2021/11/30 12:19:25;;;;;;;4.80;4.40;;;;;;;;;;5028667;28;20924;-53
2021/11/30 12:21:51;;;;;;;5.45;4.50;;;;;;;;;;5009623;28;20411;-53
2021/11/30 12:24:32;;;;;;;4.70;4.03;;;;;;;;;;5029164;28;20205;-54
2021/11/30 12:26:58;;;;;;;3.50;3.20;;;;;;;;;;5029298;28;20233;-54
2021/11/30 12:29:31;;;;;;;4.10;3.30;;;;;;;;;;5018023;28;20421;-54
2021/11/30 12:31:58;;;;;;;3.53;3.17;;;;;;;;;;4994056;28;20183;-54
2021/11/30 12:34:35;;;;;;;3.13;2.80;;;;;;;;;;5011872;28;20173;-54
2021/11/30 12:37:05;;;;;;;4.13;3.20;;;;;;;;;;5010815;28;20195;-53
2021/11/30 12:39:59;;;;;;;4.10;3.43;;;;;;;;;;5029361;28;20177;-54
2021/11/30 12:42:28;;;;;;;3.20;2.90;;;;;;;;;;5021698;28;20716;-53
2021/11/30 12:44:56;;;;;;;2.73;2.47;;;;;;;;;;5029190;28;20663;-54
2021/11/30 12:47:24;;;;;;;3.10;2.80;;;;;;;;;;5028099;28;20224;-52
2021/11/30 12:49:51;;;;;;;2.57;2.37;;;;;;;;;;5029130;28;20586;-53
2021/11/30 12:52:19;;;;;;;2.73;2.53;;;;;;;;;;5029323;28;20180;-52
2021/11/30 12:54:45;;;;;;;3.13;2.73;;;;;;;;;;5013916;28;20180;-53
2021/11/30 12:57:19;;;;;;;3.10;2.80;;;;;;;;;;5013288;28;20232;-53
2021/11/30 12:59:54;;;;;;;2.83;2.57;;;;;;;;;;5015735;28;20523;-54
2021/11/30 13:02:24;;;;;;;2.60;2.40;;;;;;;;;;5008417;28;20584;-53
2021/11/30 13:04:55;;;;;;;2.20;2.00;;;;;;;;;;5009455;28;20540;-53
2021/11/30 13:07:22;;;;;;;2.13;1.97;;;;;;;;;;5029625;28;20155;-53
2021/11/30 13:09:49;;;;;;;2.30;2.10;;;;;;;;;;5011510;28;20754;-53
2021/11/30 13:12:17;;;;;;;2.87;2.13;;;;;;;;;;5029446;28;20537;-54
2021/11/30 13:14:44;;;;;;;2.30;1.77;;;;;;;;;;5047264;28;20173;-53
2021/11/30 13:17:11;;;;;;;3.00;2.30;;;;;;;;;;5012768;28;20174;-53
2021/11/30 13:19:39;;;;;;;2.17;2.00;;;;;;;;;;5007269;28;20575;-52
2021/11/30 13:22:06;;;;;;;2.40;2.20;;;;;;;;;;5015749;28;20202;-53
2021/11/30 13:24:37;;;;;;;2.37;2.17;;;;;;;;;;5023737;28;20682;-52
2021/11/30 13:27:11;;;;;;;2.70;2.50;;;;;;;;;;5026481;28;20260;-52
2021/11/30 13:29:38;;;;;;;2.30;2.07;;;;;;;;;;5023220;28;20208;-52
2021/11/30 13:32:06;;;;;;;2.50;2.20;;;;;;;;;;5008480;28;20182;-52
2021/11/30 13:34:32;;;;;;;2.33;2.13;;;;;;;;;;4998699;28;20232;-52
2021/11/30 13:36:59;;;;;;;2.40;2.20;;;;;;;;;;5008949;28;20626;-54
2021/11/30 13:39:25;;;;;;;3.07;2.27;;;;;;;;;;5028909;28;20206;-55
2021/11/30 13:41:51;;;;;;;3.07;2.57;;;;;;;;;;5008511;28;20182;-53
2021/11/30 13:44:18;;;;;;;3.33;2.97;;;;;;;;;;5014526;28;20240;-51
2021/11/30 13:46:45;;;;;;;3.13;2.83;;;;;;;;;;5026909;28;20192;-53
2021/11/30 13:49:11;;;;;;;2.70;2.50;;;;;;;;;;5030020;28;20232;-53
2021/11/30 13:51:43;;;;;;;3.57;2.90;;;;;;;;;;4996842;28;20421;-53
2021/11/30 13:54:12;;;;;;;3.30;3.00;;;;;;;;;;5017551;28;20178;-53
2021/11/30 13:56:42;;;;;;;3.30;2.77;;;;;;;;;;5024165;28;20202;-51
2021/11/30 14:04:07;;;;;;;5.63;3.47;;;;;;;;;;5031840;28;20186;-53
2021/11/30 14:06:34;;;;;;;3.67;3.37;;;;;;;;;;5035916;28;20188;-53
2021/11/30 14:09:06;;;;;;;3.80;3.33;;;;;;;;;;5031145;28;20243;-53
2021/11/30 14:11:32;;;;;;;4.00;3.60;;;;;;;;;;5012578;28;20227;-54
2021/11/30 14:14:00;;;;;;;3.80;3.40;;;;;;;;;;5024532;28;20560;-52
2021/11/30 14:16:29;;;;;;;4.10;3.57;;;;;;;;;;5016858;28;20205;-53
2021/11/30 14:19:05;;;;;;;4.83;3.77;;;;;;;;;;5021712;28;20560;-53
2021/11/30 14:21:33;;;;;;;5.73;4.30;;;;;;;;;;5029132;28;20315;-53
2021/11/30 14:24:04;;;;;;;4.60;3.83;;;;;;;;;;5014164;28;20200;-54
2021/11/30 14:26:30;;;;;;;4.27;3.87;;;;;;;;;;5014819;28;20208;-53
2021/11/30 14:28:58;;;;;;;5.30;4.00;;;;;;;;;;5009857;28;21344;-53
2021/11/30 14:31:24;;;;;;;3.93;3.53;;;;;;;;;;5024218;28;20184;-53
2021/11/30 14:33:50;;;;;;;4.70;4.00;;;;;;;;;;5013923;28;20257;-53
2021/11/30 14:36:26;;;;;;;4.27;3.40;;;;;;;;;;5012479;28;20170;-54
2021/11/30 14:38:52;;;;;;;4.20;3.83;;;;;;;;;;5031409;28;20706;-53
2021/11/30 14:41:19;;;;;;;5.00;4.00;;;;;;;;;;5005136;28;20178;-52
2021/11/30 14:43:45;;;;;;;4.37;3.97;;;;;;;;;;5029963;28;20182;-52
2021/11/30 14:46:16;;;;;;;4.80;4.37;;;;;;;;;;5010593;28;20756;-53
2021/11/30 14:48:43;;;;;;;4.20;3.80;;;;;;;;;;5014612;28;20297;-53
2021/11/30 14:51:11;;;;;;;4.90;4.33;;;;;;;;;;5024289;28;20233;-53
2021/11/30 14:53:39;;;;;;;6.50;4.10;;;;;;;;;;5009977;28;20189;-52
2021/11/30 14:56:10;;;;;;;5.53;4.17;;;;;;;;;;5011858;28;20193;-53
2021/11/30 14:58:59;;;;;;;4.20;3.80;;;;;;;;;;5016429;28;20599;-53
2021/11/30 15:01:33;;;;;;;5.77;4.60;;;;;;;;;;5012464;28;20308;-53
2021/11/30 15:04:06;;;;;;;4.73;3.97;;;;;;;;;;5028463;28;20239;-53